createdAt,value
2018-04-08T00:00:12.150Z,0.00
2018-04-08T00:01:12.138Z,0.00
2018-04-08T00:02:12.117Z,0.00
2018-04-08T00:03:12.122Z,0.00
2018-04-08T00:04:12.100Z,0.00
2018-04-08T00:05:12.088Z,0.00
2018-04-08T00:06:12.086Z,0.00
2018-04-08T00:07:12.072Z,0.00
2018-04-08T00:08:12.051Z,0.00
2018-04-08T00:09:12.047Z,0.00
2018-04-08T00:10:12.034Z,0.00
2018-04-08T00:11:12.027Z,0.00
2018-04-08T00:12:12.014Z,0.00
2018-04-08T00:13:11.999Z,0.00
2018-04-08T00:14:11.988Z,0.00
2018-04-08T00:15:12.000Z,0.00
2018-04-08T00:16:11.967Z,0.00
2018-04-08T00:17:11.956Z,0.00
2018-04-08T00:18:11.950Z,0.00
2018-04-08T00:19:11.931Z,0.00
2018-04-08T00:20:11.922Z,0.00
2018-04-08T00:21:11.914Z,0.00
2018-04-08T00:22:11.901Z,0.00
2018-04-08T00:23:11.902Z,0.00
2018-04-08T00:24:11.884Z,0.00
2018-04-08T00:25:11.867Z,0.00
2018-04-08T00:26:11.856Z,0.00
2018-04-08T00:27:11.843Z,0.00
2018-04-08T00:28:11.834Z,0.00
2018-04-08T00:29:11.842Z,0.00
2018-04-08T00:30:11.813Z,0.00
2018-04-08T00:31:11.801Z,0.00
2018-04-08T00:32:11.806Z,0.00
2018-04-08T00:33:11.778Z,0.00
2018-04-08T00:34:11.768Z,0.00
2018-04-08T00:35:11.760Z,0.00
2018-04-08T00:36:11.744Z,0.00
2018-04-08T00:37:11.731Z,0.00
2018-04-08T00:38:11.725Z,0.00
2018-04-08T00:39:11.711Z,0.00
2018-04-08T00:40:11.708Z,0.00
2018-04-08T00:41:11.694Z,0.00
2018-04-08T00:42:11.678Z,0.00
2018-04-08T00:43:11.670Z,0.00
2018-04-08T00:44:11.654Z,0.00
2018-04-08T00:45:11.647Z,0.00
2018-04-08T00:46:11.646Z,0.00
2018-04-08T00:47:11.622Z,0.00
2018-04-08T00:48:11.612Z,0.00
2018-04-08T00:49:11.607Z,0.00
2018-04-08T00:50:11.598Z,0.00
2018-04-08T00:51:11.581Z,0.00
2018-04-08T00:52:11.565Z,0.00
2018-04-08T00:53:11.557Z,0.00
2018-04-08T00:54:11.542Z,0.00
2018-04-08T00:55:11.527Z,0.00
2018-04-08T00:56:11.513Z,0.00
2018-04-08T00:57:11.512Z,0.00
2018-04-08T00:58:11.505Z,0.00
2018-04-08T00:59:11.486Z,0.00
2018-04-08T01:00:11.481Z,0.00
2018-04-08T01:01:11.472Z,0.00
2018-04-08T01:02:11.455Z,0.00
2018-04-08T01:03:11.442Z,0.00
2018-04-08T01:04:11.428Z,0.00
2018-04-08T01:05:11.417Z,0.00
2018-04-08T01:06:11.411Z,0.00
2018-04-08T01:07:11.403Z,0.00
2018-04-08T01:08:11.384Z,0.00
2018-04-08T01:09:11.377Z,0.00
2018-04-08T01:10:11.361Z,0.00
2018-04-08T01:11:11.366Z,0.00
2018-04-08T01:12:11.338Z,0.00
2018-04-08T01:13:11.352Z,0.00
2018-04-08T01:14:11.320Z,0.00
2018-04-08T01:15:11.306Z,0.00
2018-04-08T01:16:11.293Z,0.00
2018-04-08T01:17:11.286Z,0.00
2018-04-08T01:18:11.268Z,0.00
2018-04-08T01:19:11.262Z,0.00
2018-04-08T01:20:11.248Z,0.00
2018-04-08T01:21:11.237Z,0.00
2018-04-08T01:22:11.230Z,0.00
2018-04-08T01:23:11.219Z,0.00
2018-04-08T01:24:11.203Z,0.00
2018-04-08T01:25:11.204Z,0.00
2018-04-08T01:26:11.181Z,0.00
2018-04-08T01:27:11.166Z,0.00
2018-04-08T01:28:11.166Z,0.00
2018-04-08T01:29:11.148Z,0.00
2018-04-08T01:30:11.134Z,0.00
2018-04-08T01:31:11.124Z,0.00
2018-04-08T01:32:11.108Z,0.00
2018-04-08T01:33:11.100Z,0.00
2018-04-08T01:34:11.093Z,0.00
2018-04-08T01:35:11.087Z,0.00
2018-04-08T01:36:11.089Z,0.00
2018-04-08T01:37:11.072Z,0.00
2018-04-08T01:38:11.045Z,0.00
2018-04-08T01:39:11.039Z,0.00
2018-04-08T01:40:11.020Z,0.00
2018-04-08T01:41:11.011Z,0.00
2018-04-08T01:42:11.000Z,0.00
2018-04-08T01:43:10.982Z,0.00
2018-04-08T01:44:10.969Z,0.00
2018-04-08T01:45:10.966Z,0.00
2018-04-08T01:46:10.952Z,0.00
2018-04-08T01:47:10.942Z,0.00
2018-04-08T01:48:10.933Z,0.00
2018-04-08T01:49:10.923Z,0.00
2018-04-08T01:50:10.915Z,0.00
2018-04-08T01:51:10.888Z,0.00
2018-04-08T01:52:10.886Z,0.00
2018-04-08T01:53:10.868Z,0.00
2018-04-08T01:54:10.855Z,0.00
2018-04-08T01:55:10.845Z,0.00
2018-04-08T01:56:10.837Z,0.00
2018-04-08T01:57:10.823Z,0.00
2018-04-08T01:58:10.816Z,0.00
2018-04-08T01:59:10.798Z,0.00
2018-04-08T02:00:10.788Z,0.00
2018-04-08T02:01:10.784Z,0.00
2018-04-08T02:02:10.769Z,0.00
2018-04-08T02:03:10.753Z,0.00
2018-04-08T02:04:10.743Z,0.00
2018-04-08T02:05:10.733Z,0.00
2018-04-08T02:06:10.728Z,0.00
2018-04-08T02:07:10.712Z,0.00
2018-04-08T02:08:10.695Z,0.00
2018-04-08T02:09:10.688Z,0.00
2018-04-08T02:10:10.681Z,0.00
2018-04-08T02:11:10.668Z,0.00
2018-04-08T02:12:10.644Z,0.00
2018-04-08T02:13:10.634Z,0.00
2018-04-08T02:14:10.629Z,0.00
2018-04-08T02:15:10.621Z,0.00
2018-04-08T02:16:10.599Z,0.00
2018-04-08T02:17:10.589Z,0.00
2018-04-08T02:18:10.577Z,0.00
2018-04-08T02:19:10.569Z,0.00
2018-04-08T02:20:10.568Z,0.00
2018-04-08T02:21:10.541Z,0.00
2018-04-08T02:22:10.532Z,0.00
2018-04-08T02:23:10.533Z,0.00
2018-04-08T02:24:10.516Z,0.00
2018-04-08T02:25:10.502Z,0.00
2018-04-08T02:26:10.482Z,0.00
2018-04-08T02:27:10.466Z,0.00
2018-04-08T02:28:10.459Z,0.00
2018-04-08T02:29:10.446Z,0.00
2018-04-08T02:30:10.442Z,0.00
2018-04-08T02:31:10.435Z,0.00
2018-04-08T02:32:10.412Z,0.00
2018-04-08T02:33:10.409Z,0.00
2018-04-08T02:34:10.394Z,0.00
2018-04-08T02:35:10.379Z,0.00
2018-04-08T02:36:10.367Z,0.00
2018-04-08T02:37:10.357Z,0.00
2018-04-08T02:38:10.343Z,0.00
2018-04-08T02:39:10.336Z,0.00
2018-04-08T02:40:10.319Z,0.00
2018-04-08T02:41:10.306Z,0.00
2018-04-08T02:42:10.296Z,0.00
2018-04-08T02:43:10.292Z,0.00
2018-04-08T02:44:10.270Z,0.00
2018-04-08T02:45:10.283Z,0.00
2018-04-08T02:46:10.244Z,0.00
2018-04-08T02:47:10.238Z,0.00
2018-04-08T02:48:10.228Z,0.00
2018-04-08T02:49:10.212Z,0.00
2018-04-08T02:50:10.204Z,0.00
2018-04-08T02:51:10.193Z,0.00
2018-04-08T02:52:10.184Z,0.00
2018-04-08T02:53:10.169Z,0.00
2018-04-08T02:54:10.163Z,0.00
2018-04-08T02:55:10.145Z,0.00
2018-04-08T02:56:10.139Z,0.00
2018-04-08T02:57:10.124Z,0.00
2018-04-08T02:58:10.109Z,0.00
2018-04-08T02:59:10.100Z,0.00
2018-04-08T03:00:10.083Z,0.00
2018-04-08T03:01:10.085Z,0.00
2018-04-08T03:02:10.068Z,0.00
2018-04-08T03:03:10.055Z,0.00
2018-04-08T03:04:10.040Z,0.00
2018-04-08T03:05:10.022Z,0.00
2018-04-08T03:06:10.019Z,0.00
2018-04-08T03:07:10.005Z,0.00
2018-04-08T03:08:09.997Z,0.00
2018-04-08T03:09:09.991Z,0.00
2018-04-08T03:10:09.975Z,0.00
2018-04-08T03:11:09.959Z,0.00
2018-04-08T03:12:09.949Z,0.00
2018-04-08T03:13:09.939Z,0.00
2018-04-08T03:14:09.929Z,0.00
2018-04-08T03:15:09.919Z,0.00
2018-04-08T03:16:09.906Z,0.00
2018-04-08T03:17:09.891Z,0.00
2018-04-08T03:18:09.880Z,0.00
2018-04-08T03:19:09.868Z,0.00
2018-04-08T03:20:09.854Z,0.00
2018-04-08T03:21:09.841Z,0.00
2018-04-08T03:22:09.836Z,0.00
2018-04-08T03:23:09.821Z,0.00
2018-04-08T03:24:09.804Z,0.00
2018-04-08T03:25:09.800Z,0.00
2018-04-08T03:26:09.779Z,0.00
2018-04-08T03:27:09.773Z,0.00
2018-04-08T03:28:09.755Z,0.00
2018-04-08T03:29:09.749Z,0.00
2018-04-08T03:30:09.736Z,0.00
2018-04-08T03:31:09.735Z,0.00
2018-04-08T03:32:09.718Z,0.00
2018-04-08T03:33:09.698Z,0.00
2018-04-08T03:34:09.688Z,0.00
2018-04-08T03:35:09.674Z,0.00
2018-04-08T03:36:09.664Z,0.00
2018-04-08T03:37:09.653Z,0.00
2018-04-08T03:38:09.639Z,0.00
2018-04-08T03:39:09.629Z,0.00
2018-04-08T03:40:09.616Z,0.00
2018-04-08T03:41:09.604Z,0.00
2018-04-08T03:42:09.606Z,0.00
2018-04-08T03:43:09.578Z,0.00
2018-04-08T03:44:09.568Z,0.00
2018-04-08T03:45:09.566Z,0.00
2018-04-08T03:46:09.547Z,0.00
2018-04-08T03:47:09.536Z,0.00
2018-04-08T03:48:09.533Z,0.00
2018-04-08T03:49:09.511Z,0.00
2018-04-08T03:50:09.509Z,0.00
2018-04-08T03:51:09.488Z,0.00
2018-04-08T03:52:09.477Z,0.00
2018-04-08T03:53:09.463Z,0.00
2018-04-08T03:54:09.445Z,0.00
2018-04-08T03:55:09.445Z,0.00
2018-04-08T03:56:09.432Z,0.00
2018-04-08T03:57:09.416Z,0.00
2018-04-08T03:58:09.400Z,0.00
2018-04-08T03:59:09.390Z,0.00
2018-04-08T04:00:09.373Z,0.00
2018-04-08T04:01:09.365Z,0.00
2018-04-08T04:02:09.353Z,0.00
2018-04-08T04:03:09.343Z,0.00
2018-04-08T04:04:09.336Z,0.00
2018-04-08T04:05:09.316Z,0.00
2018-04-08T04:06:09.307Z,0.00
2018-04-08T04:07:09.296Z,0.00
2018-04-08T04:08:09.284Z,0.00
2018-04-08T04:09:09.283Z,0.00
2018-04-08T04:10:09.257Z,0.00
2018-04-08T04:11:09.247Z,0.00
2018-04-08T04:12:09.239Z,0.00
2018-04-08T04:13:09.222Z,0.00
2018-04-08T04:14:09.206Z,0.00
2018-04-08T04:15:09.200Z,0.00
2018-04-08T04:16:09.180Z,0.00
2018-04-08T04:17:09.171Z,0.00
2018-04-08T04:18:09.160Z,0.00
2018-04-08T04:19:09.150Z,0.00
2018-04-08T04:20:09.144Z,0.00
2018-04-08T04:21:09.123Z,0.00
2018-04-08T04:22:09.121Z,0.00
2018-04-08T04:23:09.102Z,0.00
2018-04-08T04:24:09.087Z,0.00
2018-04-08T04:25:09.079Z,0.00
2018-04-08T04:26:09.067Z,0.00
2018-04-08T04:27:09.053Z,0.00
2018-04-08T04:28:09.037Z,0.00
2018-04-08T04:29:09.031Z,0.00
2018-04-08T04:30:09.024Z,0.00
2018-04-08T04:31:09.014Z,4.00
2018-04-08T04:32:08.996Z,0.00
2018-04-08T04:33:08.984Z,0.00
2018-04-08T04:34:08.974Z,4.00
2018-04-08T04:35:08.958Z,4.00
2018-04-08T04:36:08.947Z,4.00
2018-04-08T04:37:08.932Z,4.00
2018-04-08T04:38:08.937Z,4.00
2018-04-08T04:39:08.925Z,4.00
2018-04-08T04:40:08.893Z,4.00
2018-04-08T04:41:08.881Z,8.00
2018-04-08T04:42:08.871Z,8.00
2018-04-08T04:43:08.858Z,8.00
2018-04-08T04:44:08.848Z,8.00
2018-04-08T04:45:08.836Z,12.00
2018-04-08T04:46:08.826Z,12.00
2018-04-08T04:47:08.816Z,12.00
2018-04-08T04:48:08.796Z,12.00
2018-04-08T04:49:08.789Z,16.00
2018-04-08T04:50:08.773Z,16.00
2018-04-08T04:51:08.766Z,20.00
2018-04-08T04:52:08.752Z,20.00
2018-04-08T04:53:08.739Z,24.00
2018-04-08T04:54:08.732Z,24.00
2018-04-08T04:55:08.742Z,28.00
2018-04-08T04:56:08.702Z,28.00
2018-04-08T04:57:08.699Z,32.00
2018-04-08T04:58:08.684Z,32.00
2018-04-08T04:59:08.667Z,36.00
2018-04-08T05:00:08.660Z,40.00
2018-04-08T05:01:08.646Z,44.00
2018-04-08T05:02:08.631Z,44.00
2018-04-08T05:03:08.616Z,48.00
2018-04-08T05:04:08.605Z,52.00
2018-04-08T05:05:08.598Z,52.00
2018-04-08T05:06:08.580Z,56.00
2018-04-08T05:07:08.568Z,56.00
2018-04-08T05:08:08.556Z,64.00
2018-04-08T05:09:08.553Z,68.00
2018-04-08T05:10:08.536Z,68.00
2018-04-08T05:11:08.522Z,68.00
2018-04-08T05:12:08.550Z,76.00
2018-04-08T05:13:08.502Z,76.00
2018-04-08T05:14:08.489Z,80.00
2018-04-08T05:15:08.476Z,80.00
2018-04-08T05:16:08.466Z,88.00
2018-04-08T05:17:08.456Z,88.00
2018-04-08T05:18:08.437Z,92.00
2018-04-08T05:19:08.432Z,96.00
2018-04-08T05:20:08.411Z,96.00
2018-04-08T05:21:08.398Z,100.00
2018-04-08T05:22:08.386Z,100.00
2018-04-08T05:23:08.403Z,104.00
2018-04-08T05:24:08.405Z,108.00
2018-04-08T05:25:08.353Z,112.00
2018-04-08T05:26:08.348Z,116.00
2018-04-08T05:27:08.329Z,116.00
2018-04-08T05:28:08.318Z,116.00
2018-04-08T05:29:08.306Z,124.00
2018-04-08T05:30:08.298Z,124.00
2018-04-08T05:31:08.280Z,124.00
2018-04-08T05:32:08.265Z,132.00
2018-04-08T05:33:08.255Z,132.00
2018-04-08T05:34:08.251Z,136.00
2018-04-08T05:35:08.228Z,140.00
2018-04-08T05:36:08.228Z,144.00
2018-04-08T05:37:08.203Z,144.00
2018-04-08T05:38:08.219Z,148.00
2018-04-08T05:39:08.186Z,148.00
2018-04-08T05:40:08.173Z,156.00
2018-04-08T05:41:08.162Z,156.00
2018-04-08T05:42:08.148Z,160.00
2018-04-08T05:43:08.135Z,160.00
2018-04-08T05:44:08.126Z,164.00
2018-04-08T05:45:08.106Z,168.00
2018-04-08T05:46:08.098Z,172.00
2018-04-08T05:47:08.088Z,172.00
2018-04-08T05:48:08.077Z,176.00
2018-04-08T05:49:08.064Z,176.00
2018-04-08T05:50:08.050Z,180.00
2018-04-08T05:51:08.037Z,188.00
2018-04-08T05:52:08.032Z,188.00
2018-04-08T05:53:08.017Z,192.00
2018-04-08T05:54:08.009Z,192.00
2018-04-08T05:55:07.995Z,196.00
2018-04-08T05:56:07.980Z,196.00
2018-04-08T05:57:07.965Z,200.00
2018-04-08T05:58:08.010Z,204.00
2018-04-08T05:59:07.941Z,204.00
2018-04-08T06:00:07.923Z,208.00
2018-04-08T06:01:07.919Z,212.00
2018-04-08T06:02:07.905Z,216.00
2018-04-08T06:03:07.898Z,220.00
2018-04-08T06:04:07.880Z,220.00
2018-04-08T06:05:07.869Z,224.00
2018-04-08T06:06:07.861Z,228.00
2018-04-08T06:07:07.849Z,228.00
2018-04-08T06:08:07.835Z,232.00
2018-04-08T06:09:07.822Z,236.00
2018-04-08T06:10:07.812Z,240.00
2018-04-08T06:11:07.805Z,244.00
2018-04-08T06:12:07.794Z,248.00
2018-04-08T06:13:07.779Z,248.00
2018-04-08T06:14:07.763Z,252.00
2018-04-08T06:15:07.754Z,256.00
2018-04-08T06:16:07.740Z,260.00
2018-04-08T06:17:07.725Z,264.00
2018-04-08T06:18:07.725Z,264.00
2018-04-08T06:19:07.711Z,272.00
2018-04-08T06:20:07.688Z,272.00
2018-04-08T06:21:07.681Z,276.00
2018-04-08T06:22:07.668Z,276.00
2018-04-08T06:23:07.656Z,284.00
2018-04-08T06:24:07.646Z,284.00
2018-04-08T06:25:07.632Z,288.00
2018-04-08T06:26:07.627Z,296.00
2018-04-08T06:27:07.607Z,296.00
2018-04-08T06:28:07.600Z,300.00
2018-04-08T06:29:07.579Z,304.00
2018-04-08T06:30:07.568Z,312.00
2018-04-08T06:31:07.563Z,312.00
2018-04-08T06:32:07.549Z,320.00
2018-04-08T06:33:07.537Z,332.00
2018-04-08T06:34:07.528Z,356.00
2018-04-08T06:35:07.510Z,428.00
2018-04-08T06:36:07.495Z,484.00
2018-04-08T06:37:07.488Z,512.00
2018-04-08T06:38:07.483Z,536.00
2018-04-08T06:39:07.466Z,560.00
2018-04-08T06:40:07.451Z,580.00
2018-04-08T06:41:07.444Z,608.00
2018-04-08T06:42:07.442Z,640.00
2018-04-08T06:43:07.418Z,660.00
2018-04-08T06:44:07.407Z,684.00
2018-04-08T06:45:07.398Z,708.00
2018-04-08T06:46:07.387Z,724.00
2018-04-08T06:47:07.370Z,736.00
2018-04-08T06:48:07.369Z,748.00
2018-04-08T06:49:07.351Z,760.00
2018-04-08T06:50:07.340Z,772.00
2018-04-08T06:51:07.327Z,784.00
2018-04-08T06:52:07.315Z,800.00
2018-04-08T06:53:07.301Z,808.00
2018-04-08T06:54:07.288Z,812.00
2018-04-08T06:55:07.279Z,832.00
2018-04-08T06:56:07.268Z,840.00
2018-04-08T06:57:07.258Z,844.00
2018-04-08T06:58:07.251Z,856.00
2018-04-08T06:59:07.235Z,864.00
2018-04-08T07:00:07.230Z,880.00
2018-04-08T07:01:07.210Z,896.00
2018-04-08T07:02:07.205Z,904.00
2018-04-08T07:03:07.191Z,916.00
2018-04-08T07:04:07.177Z,924.00
2018-04-08T07:05:07.168Z,940.00
2018-04-08T07:06:07.188Z,952.00
2018-04-08T07:07:07.153Z,964.00
2018-04-08T07:08:07.147Z,976.00
2018-04-08T07:09:07.127Z,988.00
2018-04-08T07:10:07.115Z,996.00
2018-04-08T07:11:07.104Z,1016.00
2018-04-08T07:12:07.093Z,1024.00
2018-04-08T07:13:07.083Z,1044.00
2018-04-08T07:14:07.084Z,1052.00
2018-04-08T07:15:07.070Z,1060.00
2018-04-08T07:16:07.046Z,1076.00
2018-04-08T07:17:07.064Z,1088.00
2018-04-08T07:18:07.036Z,1100.00
2018-04-08T07:19:07.024Z,1120.00
2018-04-08T07:20:07.014Z,1136.00
2018-04-08T07:21:07.002Z,1152.00
2018-04-08T07:22:06.996Z,1168.00
2018-04-08T07:23:06.982Z,1180.00
2018-04-08T07:24:06.969Z,1192.00
2018-04-08T07:25:06.962Z,1212.00
2018-04-08T07:26:06.943Z,1224.00
2018-04-08T07:27:06.939Z,1232.00
2018-04-08T07:28:06.933Z,1132.00
2018-04-08T07:29:06.920Z,1068.00
2018-04-08T07:30:06.909Z,1108.00
2018-04-08T07:31:06.899Z,1116.00
2018-04-08T07:32:06.891Z,1120.00
2018-04-08T07:33:06.882Z,1128.00
2018-04-08T07:34:06.874Z,1136.00
2018-04-08T07:35:06.868Z,1148.00
2018-04-08T07:36:06.850Z,1160.00
2018-04-08T07:37:06.837Z,1164.00
2018-04-08T07:38:06.872Z,1176.00
2018-04-08T07:39:06.819Z,1188.00
2018-04-08T07:40:06.811Z,1192.00
2018-04-08T07:41:06.802Z,1204.00
2018-04-08T07:42:06.793Z,1204.00
2018-04-08T07:43:06.780Z,1208.00
2018-04-08T07:44:06.800Z,1212.00
2018-04-08T07:45:06.763Z,1192.00
2018-04-08T07:46:06.753Z,1188.00
2018-04-08T07:47:06.747Z,1244.00
2018-04-08T07:48:06.732Z,1208.00
2018-04-08T07:49:06.723Z,1412.00
2018-04-08T07:50:06.714Z,1444.00
2018-04-08T07:51:06.714Z,1540.00
2018-04-08T07:52:06.698Z,1572.00
2018-04-08T07:53:06.686Z,1592.00
2018-04-08T07:54:06.679Z,1608.00
2018-04-08T07:55:06.673Z,1616.00
2018-04-08T07:56:06.659Z,1648.00
2018-04-08T07:57:06.642Z,1656.00
2018-04-08T07:58:06.644Z,1684.00
2018-04-08T07:59:06.662Z,1696.00
2018-04-08T08:00:06.618Z,1712.00
2018-04-08T08:01:06.618Z,1736.00
2018-04-08T08:02:06.605Z,1760.00
2018-04-08T08:03:06.590Z,1772.00
2018-04-08T08:04:06.584Z,1792.00
2018-04-08T08:05:06.574Z,1808.00
2018-04-08T08:06:06.565Z,1828.00
2018-04-08T08:07:06.559Z,1848.00
2018-04-08T08:08:06.543Z,1864.00
2018-04-08T08:09:06.537Z,1876.00
2018-04-08T08:10:06.564Z,1896.00
2018-04-08T08:11:06.523Z,1916.00
2018-04-08T08:12:06.509Z,1932.00
2018-04-08T08:13:06.501Z,1944.00
2018-04-08T08:14:06.496Z,1960.00
2018-04-08T08:15:06.498Z,1976.00
2018-04-08T08:16:06.467Z,1992.00
2018-04-08T08:17:06.471Z,2008.00
2018-04-08T08:18:06.454Z,2024.00
2018-04-08T08:19:06.443Z,2036.00
2018-04-08T08:20:06.440Z,2048.00
2018-04-08T08:21:06.426Z,2068.00
2018-04-08T08:22:06.415Z,2084.00
2018-04-08T08:23:06.431Z,2096.00
2018-04-08T08:24:06.406Z,2112.00
2018-04-08T08:25:06.392Z,2124.00
2018-04-08T08:26:06.390Z,2144.00
2018-04-08T08:27:06.382Z,2156.00
2018-04-08T08:28:06.372Z,2168.00
2018-04-08T08:29:06.355Z,2192.00
2018-04-08T08:30:06.347Z,2208.00
2018-04-08T08:31:06.345Z,2224.00
2018-04-08T08:32:06.331Z,2232.00
2018-04-08T08:33:06.325Z,2248.00
2018-04-08T08:34:06.317Z,2252.00
2018-04-08T08:35:06.309Z,2256.00
2018-04-08T08:36:06.301Z,2264.00
2018-04-08T08:37:06.293Z,2276.00
2018-04-08T08:38:06.287Z,2284.00
2018-04-08T08:39:06.281Z,2292.00
2018-04-08T08:40:06.266Z,2300.00
2018-04-08T08:41:06.254Z,2320.00
2018-04-08T08:42:06.249Z,2332.00
2018-04-08T08:43:06.259Z,2344.00
2018-04-08T08:44:06.239Z,2356.00
2018-04-08T08:45:06.224Z,2368.00
2018-04-08T08:46:06.220Z,2380.00
2018-04-08T08:47:06.209Z,2392.00
2018-04-08T08:48:06.204Z,2396.00
2018-04-08T08:49:06.199Z,2404.00
2018-04-08T08:50:06.187Z,2408.00
2018-04-08T08:51:06.179Z,2424.00
2018-04-08T08:52:06.169Z,2432.00
2018-04-08T08:53:06.163Z,2440.00
2018-04-08T08:54:06.153Z,2188.00
2018-04-08T08:55:06.147Z,2036.00
2018-04-08T08:56:06.144Z,2032.00
2018-04-08T08:57:06.134Z,2036.00
2018-04-08T08:58:06.124Z,2040.00
2018-04-08T08:59:06.116Z,2032.00
2018-04-08T09:00:06.110Z,2060.00
2018-04-08T09:01:06.101Z,2064.00
2018-04-08T09:02:06.091Z,2068.00
2018-04-08T09:03:06.085Z,2072.00
2018-04-08T09:04:06.075Z,2088.00
2018-04-08T09:05:06.076Z,2100.00
2018-04-08T09:06:06.067Z,2108.00
2018-04-08T09:07:06.056Z,2112.00
2018-04-08T09:08:06.047Z,2116.00
2018-04-08T09:09:06.043Z,2120.00
2018-04-08T09:10:06.038Z,2120.00
2018-04-08T09:11:06.031Z,2128.00
2018-04-08T09:12:06.041Z,2136.00
2018-04-08T09:13:06.012Z,2136.00
2018-04-08T09:14:06.008Z,2152.00
2018-04-08T09:15:06.004Z,2336.00
2018-04-08T09:16:05.991Z,2128.00
2018-04-08T09:17:05.991Z,2132.00
2018-04-08T09:18:05.981Z,2144.00
2018-04-08T09:19:05.971Z,2140.00
2018-04-08T09:20:05.963Z,2136.00
2018-04-08T09:21:05.953Z,2128.00
2018-04-08T09:22:05.951Z,2364.00
2018-04-08T09:23:05.942Z,2364.00
2018-04-08T09:24:05.935Z,2136.00
2018-04-08T09:25:05.931Z,2152.00
2018-04-08T09:26:05.920Z,2160.00
2018-04-08T09:27:05.912Z,2160.00
2018-04-08T09:28:05.904Z,2160.00
2018-04-08T09:29:05.954Z,2612.00
2018-04-08T09:30:05.894Z,2684.00
2018-04-08T09:31:05.886Z,2696.00
2018-04-08T09:32:05.880Z,2696.00
2018-04-08T09:33:05.871Z,2736.00
2018-04-08T09:34:05.865Z,2736.00
2018-04-08T09:35:05.860Z,2748.00
2018-04-08T09:36:05.851Z,2760.00
2018-04-08T09:37:05.856Z,2764.00
2018-04-08T09:38:05.845Z,2764.00
2018-04-08T09:39:05.831Z,2772.00
2018-04-08T09:40:05.823Z,2768.00
2018-04-08T09:41:05.821Z,2776.00
2018-04-08T09:42:05.818Z,2780.00
2018-04-08T09:43:05.808Z,2788.00
2018-04-08T09:44:05.800Z,2788.00
2018-04-08T09:45:05.796Z,2796.00
2018-04-08T09:46:05.785Z,2804.00
2018-04-08T09:47:05.783Z,2800.00
2018-04-08T09:48:05.776Z,2796.00
2018-04-08T09:49:05.775Z,2800.00
2018-04-08T09:50:05.754Z,2796.00
2018-04-08T09:51:05.755Z,2808.00
2018-04-08T09:52:05.768Z,2816.00
2018-04-08T09:53:05.739Z,2820.00
2018-04-08T09:54:05.736Z,2824.00
2018-04-08T09:55:05.737Z,2828.00
2018-04-08T09:56:05.722Z,2828.00
2018-04-08T09:57:05.715Z,2836.00
2018-04-08T09:58:05.710Z,2840.00
2018-04-08T09:59:05.700Z,2844.00
2018-04-08T10:00:05.696Z,2844.00
2018-04-08T10:01:05.692Z,2852.00
2018-04-08T10:02:05.686Z,2852.00
2018-04-08T10:03:05.684Z,2864.00
2018-04-08T10:04:05.675Z,2864.00
2018-04-08T10:05:05.668Z,2872.00
2018-04-08T10:06:05.658Z,2872.00
2018-04-08T10:07:05.655Z,2876.00
2018-04-08T10:08:05.648Z,2884.00
2018-04-08T10:09:05.640Z,2892.00
2018-04-08T10:10:05.635Z,2892.00
2018-04-08T10:11:05.634Z,2904.00
2018-04-08T10:12:05.628Z,2912.00
2018-04-08T10:13:05.622Z,2920.00
2018-04-08T10:14:05.609Z,2916.00
2018-04-08T10:15:05.607Z,2916.00
2018-04-08T10:16:05.591Z,2912.00
2018-04-08T10:17:05.596Z,2916.00
2018-04-08T10:18:05.589Z,2928.00
2018-04-08T10:19:05.584Z,2932.00
2018-04-08T10:20:05.573Z,2936.00
2018-04-08T10:21:05.564Z,2944.00
2018-04-08T10:22:05.564Z,2956.00
2018-04-08T10:23:05.564Z,2964.00
2018-04-08T10:24:05.550Z,2968.00
2018-04-08T10:25:05.547Z,2964.00
2018-04-08T10:26:05.540Z,2980.00
2018-04-08T10:27:05.535Z,2980.00
2018-04-08T10:28:05.538Z,2984.00
2018-04-08T10:29:05.545Z,2984.00
2018-04-08T10:30:05.513Z,2984.00
2018-04-08T10:31:05.513Z,2980.00
2018-04-08T10:32:05.504Z,3000.00
2018-04-08T10:33:05.499Z,3004.00
2018-04-08T10:34:05.491Z,3008.00
2018-04-08T10:35:05.491Z,3012.00
2018-04-08T10:36:05.478Z,3016.00
2018-04-08T10:37:05.476Z,3024.00
2018-04-08T10:38:05.469Z,3036.00
2018-04-08T10:39:05.467Z,3044.00
2018-04-08T10:40:05.464Z,3056.00
2018-04-08T10:41:05.454Z,3060.00
2018-04-08T10:42:05.445Z,3068.00
2018-04-08T10:43:05.444Z,3080.00
2018-04-08T10:44:05.438Z,3084.00
2018-04-08T10:45:05.434Z,3084.00
2018-04-08T10:46:05.430Z,3088.00
2018-04-08T10:47:05.425Z,3104.00
2018-04-08T10:48:05.415Z,3108.00
2018-04-08T10:49:05.417Z,3120.00
2018-04-08T10:50:05.403Z,3124.00
2018-04-08T10:51:05.400Z,3124.00
2018-04-08T10:52:05.408Z,3136.00
2018-04-08T10:53:05.390Z,3144.00
2018-04-08T10:54:05.401Z,3148.00
2018-04-08T10:55:05.385Z,3156.00
2018-04-08T10:56:05.375Z,3164.00
2018-04-08T10:57:05.372Z,3172.00
2018-04-08T10:58:05.364Z,3176.00
2018-04-08T10:59:05.361Z,3192.00
2018-04-08T11:00:05.354Z,3200.00
2018-04-08T11:01:05.347Z,3204.00
2018-04-08T11:02:05.343Z,3204.00
2018-04-08T11:03:05.340Z,3216.00
2018-04-08T11:04:05.338Z,3224.00
2018-04-08T11:05:05.327Z,3240.00
2018-04-08T11:06:05.325Z,3252.00
2018-04-08T11:07:05.314Z,3256.00
2018-04-08T11:08:05.310Z,3268.00
2018-04-08T11:09:05.308Z,3276.00
2018-04-08T11:10:05.302Z,3280.00
2018-04-08T11:11:05.292Z,3292.00
2018-04-08T11:12:05.290Z,3292.00
2018-04-08T11:13:05.286Z,3304.00
2018-04-08T11:14:05.282Z,3312.00
2018-04-08T11:15:05.272Z,3308.00
2018-04-08T11:16:05.271Z,3324.00
2018-04-08T11:17:05.260Z,3336.00
2018-04-08T11:18:05.263Z,3344.00
2018-04-08T11:19:05.256Z,3352.00
2018-04-08T11:20:05.250Z,3364.00
2018-04-08T11:21:05.241Z,3376.00
2018-04-08T11:22:05.239Z,3384.00
2018-04-08T11:23:05.225Z,3388.00
2018-04-08T11:24:05.223Z,3392.00
2018-04-08T11:25:05.222Z,3396.00
2018-04-08T11:26:05.210Z,3400.00
2018-04-08T11:27:05.216Z,3412.00
2018-04-08T11:28:05.203Z,3416.00
2018-04-08T11:29:05.203Z,3416.00
2018-04-08T11:30:05.195Z,3436.00
2018-04-08T11:31:05.192Z,3440.00
2018-04-08T11:32:05.184Z,3444.00
2018-04-08T11:33:05.179Z,3456.00
2018-04-08T11:34:05.171Z,3456.00
2018-04-08T11:35:05.173Z,3456.00
2018-04-08T11:36:05.168Z,3464.00
2018-04-08T11:37:05.157Z,3472.00
2018-04-08T11:38:05.148Z,3468.00
2018-04-08T11:39:05.155Z,3448.00
2018-04-08T11:40:05.147Z,3476.00
2018-04-08T11:41:05.136Z,3496.00
2018-04-08T11:42:05.133Z,3500.00
2018-04-08T11:43:05.122Z,3484.00
2018-04-08T11:44:05.121Z,3496.00
2018-04-08T11:45:05.114Z,3492.00
2018-04-08T11:46:05.107Z,3452.00
2018-04-08T11:47:05.108Z,3452.00
2018-04-08T11:48:05.097Z,3500.00
2018-04-08T11:49:05.094Z,3536.00
2018-04-08T11:50:05.089Z,3552.00
2018-04-08T11:51:05.086Z,3512.00
2018-04-08T11:52:05.076Z,3564.00
2018-04-08T11:53:05.072Z,3576.00
2018-04-08T11:54:05.071Z,3596.00
2018-04-08T11:55:05.065Z,3608.00
2018-04-08T11:56:05.053Z,3616.00
2018-04-08T11:57:05.054Z,3620.00
2018-04-08T11:58:05.044Z,3616.00
2018-04-08T11:59:05.048Z,3616.00
2018-04-08T12:00:05.031Z,3628.00
2018-04-08T12:01:05.032Z,3636.00
2018-04-08T12:02:05.075Z,3640.00
2018-04-08T12:03:05.024Z,3644.00
2018-04-08T12:04:05.012Z,3660.00
2018-04-08T12:05:05.004Z,3656.00
2018-04-08T12:06:05.000Z,3660.00
2018-04-08T12:07:05.001Z,3684.00
2018-04-08T12:08:04.995Z,3688.00
2018-04-08T12:09:04.989Z,3676.00
2018-04-08T12:10:04.986Z,3680.00
2018-04-08T12:11:04.976Z,3676.00
2018-04-08T12:12:04.979Z,3668.00
2018-04-08T12:13:04.964Z,3652.00
2018-04-08T12:14:04.960Z,3664.00
2018-04-08T12:15:04.961Z,3624.00
2018-04-08T12:16:04.948Z,3584.00
2018-04-08T12:17:04.947Z,3560.00
2018-04-08T12:18:04.949Z,3520.00
2018-04-08T12:19:04.941Z,3500.00
2018-04-08T12:20:04.933Z,3428.00
2018-04-08T12:21:04.925Z,3380.00
2018-04-08T12:22:04.921Z,3468.00
2018-04-08T12:23:04.918Z,3468.00
2018-04-08T12:24:04.910Z,3508.00
2018-04-08T12:25:04.906Z,3572.00
2018-04-08T12:26:04.905Z,3644.00
2018-04-08T12:27:04.892Z,3672.00
2018-04-08T12:28:04.891Z,3680.00
2018-04-08T12:29:04.894Z,3680.00
2018-04-08T12:30:04.876Z,3688.00
2018-04-08T12:31:04.874Z,3696.00
2018-04-08T12:32:04.868Z,3704.00
2018-04-08T12:33:04.857Z,3704.00
2018-04-08T12:34:04.858Z,3732.00
2018-04-08T12:35:04.852Z,3740.00
2018-04-08T12:36:04.851Z,3736.00
2018-04-08T12:37:04.852Z,3744.00